sensor_id;sensor_type;location;lat;lon;timestamp;temperature;humidity
1063;DHT22;520;50.932;6.962;2022-11-20T00:13:33;6.00;98.80
1063;DHT22;520;50.932;6.962;2022-11-20T00:16:17;6.00;98.80
1063;DHT22;520;50.932;6.962;2022-11-20T00:19:22;6.30;98.40
1063;DHT22;520;50.932;6.962;2022-11-20T00:26:00;6.00;97.90
1063;DHT22;520;50.932;6.962;2022-11-20T00:56:35;5.90;98.90
1063;DHT22;520;50.932;6.962;2022-11-20T00:59:46;5.80;98.70
1063;DHT22;520;50.932;6.962;2022-11-20T01:02:30;5.90;98.70
1063;DHT22;520;50.932;6.962;2022-11-20T01:05:14;5.70;98.60
1063;DHT22;520;50.932;6.962;2022-11-20T01:08:20;5.70;99.00
1063;DHT22;520;50.932;6.962;2022-11-20T01:18:21;6.10;98.10
1063;DHT22;520;50.932;6.962;2022-11-20T01:22:03;6.00;97.70
1063;DHT22;520;50.932;6.962;2022-11-20T01:24:33;5.80;97.70
1063;DHT22;520;50.932;6.962;2022-11-20T01:27:30;5.70;98.10
1063;DHT22;520;50.932;6.962;2022-11-20T01:30:32;5.80;98.60
1063;DHT22;520;50.932;6.962;2022-11-20T01:33:42;6.00;98.50
1063;DHT22;520;50.932;6.962;2022-11-20T01:37:00;6.00;98.00
1063;DHT22;520;50.932;6.962;2022-11-20T01:40:07;5.80;97.90
1063;DHT22;520;50.932;6.962;2022-11-20T01:46:24;5.80;98.60
1063;DHT22;520;50.932;6.962;2022-11-20T02:04:38;5.70;98.40
1063;DHT22;520;50.932;6.962;2022-11-20T02:07:28;5.80;98.80
1063;DHT22;520;50.932;6.962;2022-11-20T02:10:37;6.00;98.50
1063;DHT22;520;50.932;6.962;2022-11-20T02:13:40;6.00;98.30
1063;DHT22;520;50.932;6.962;2022-11-20T02:16:47;6.00;98.10
1063;DHT22;520;50.932;6.962;2022-11-20T02:20:02;5.90;98.60
1063;DHT22;520;50.932;6.962;2022-11-20T02:26:41;5.80;99.20
1063;DHT22;520;50.932;6.962;2022-11-20T02:29:18;6.10;98.70
1063;DHT22;520;50.932;6.962;2022-11-20T02:39:16;5.90;97.70
1063;DHT22;520;50.932;6.962;2022-11-20T02:42:19;6.00;98.10
1063;DHT22;520;50.932;6.962;2022-11-20T02:45:24;5.90;98.30
1063;DHT22;520;50.932;6.962;2022-11-20T02:48:32;5.90;98.20
1063;DHT22;520;50.932;6.962;2022-11-20T02:54:54;5.70;98.40
1063;DHT22;520;50.932;6.962;2022-11-20T02:57:48;5.80;99.00
1063;DHT22;520;50.932;6.962;2022-11-20T03:00:41;5.60;99.10
1063;DHT22;520;50.932;6.962;2022-11-20T03:03:32;5.70;99.10
1063;DHT22;520;50.932;6.962;2022-11-20T03:06:14;5.70;99.10
1063;DHT22;520;50.932;6.962;2022-11-20T03:09:05;5.50;99.20
1063;DHT22;520;50.932;6.962;2022-11-20T03:12:08;5.70;99.20
1063;DHT22;520;50.932;6.962;2022-11-20T03:15:12;5.90;98.60
1063;DHT22;520;50.932;6.962;2022-11-20T03:18:09;5.90;98.40
1063;DHT22;520;50.932;6.962;2022-11-20T03:24:38;5.90;98.70
1063;DHT22;520;50.932;6.962;2022-11-20T03:27:21;6.10;98.40
1063;DHT22;520;50.932;6.962;2022-11-20T03:30:44;6.10;98.30
1063;DHT22;520;50.932;6.962;2022-11-20T03:33:22;6.20;98.10
1063;DHT22;520;50.932;6.962;2022-11-20T03:36:39;6.10;97.90
1063;DHT22;520;50.932;6.962;2022-11-20T03:39:53;5.90;98.40
1063;DHT22;520;50.932;6.962;2022-11-20T03:42:45;6.00;98.70
1063;DHT22;520;50.932;6.962;2022-11-20T03:45:56;5.90;98.80
1063;DHT22;520;50.932;6.962;2022-11-20T03:48:53;6.00;98.70
1063;DHT22;520;50.932;6.962;2022-11-20T03:54:52;5.90;99.10
1063;DHT22;520;50.932;6.962;2022-11-20T03:57:39;5.90;99.00
1063;DHT22;520;50.932;6.962;2022-11-20T04:00:51;5.90;99.10
1063;DHT22;520;50.932;6.962;2022-11-20T04:03:51;5.80;99.00
1063;DHT22;520;50.932;6.962;2022-11-20T04:06:53;5.60;99.40
1063;DHT22;520;50.932;6.962;2022-11-20T04:10:09;5.40;99.90
1063;DHT22;520;50.932;6.962;2022-11-20T04:12:56;5.50;99.90
1063;DHT22;520;50.932;6.962;2022-11-20T04:15:52;5.70;99.90
1063;DHT22;520;50.932;6.962;2022-11-20T04:19:03;5.60;99.90
1063;DHT22;520;50.932;6.962;2022-11-20T04:21:50;5.80;99.90
1063;DHT22;520;50.932;6.962;2022-11-20T04:31:19;5.70;99.90
1063;DHT22;520;50.932;6.962;2022-11-20T04:34:27;5.80;99.90
1063;DHT22;520;50.932;6.962;2022-11-20T04:37:27;5.90;99.90
1063;DHT22;520;50.932;6.962;2022-11-20T04:40:26;5.70;99.90
1063;DHT22;520;50.932;6.962;2022-11-20T04:43:30;5.70;99.90
1063;DHT22;520;50.932;6.962;2022-11-20T04:46:12;5.90;99.90
1063;DHT22;520;50.932;6.962;2022-11-20T04:49:00;5.70;99.90
1063;DHT22;520;50.932;6.962;2022-11-20T04:51:53;5.60;99.90
1063;DHT22;520;50.932;6.962;2022-11-20T04:54:45;5.80;99.90
1063;DHT22;520;50.932;6.962;2022-11-20T04:57:46;5.90;99.90
1063;DHT22;520;50.932;6.962;2022-11-20T05:00:52;6.10;99.90
1063;DHT22;520;50.932;6.962;2022-11-20T05:03:57;6.10;99.90
1063;DHT22;520;50.932;6.962;2022-11-20T05:06:32;6.10;99.90
1063;DHT22;520;50.932;6.962;2022-11-20T05:09:46;5.80;99.90
1063;DHT22;520;50.932;6.962;2022-11-20T05:12:40;5.70;99.90
1063;DHT22;520;50.932;6.962;2022-11-20T05:31:49;5.80;99.90
1063;DHT22;520;50.932;6.962;2022-11-20T05:37:46;5.70;99.90
1063;DHT22;520;50.932;6.962;2022-11-20T05:44:01;5.90;99.90
1063;DHT22;520;50.932;6.962;2022-11-20T05:46:56;6.10;99.90
1063;DHT22;520;50.932;6.962;2022-11-20T05:49:50;6.10;99.90
1063;DHT22;520;50.932;6.962;2022-11-20T05:55:39;6.40;99.90
1063;DHT22;520;50.932;6.962;2022-11-20T05:58:37;6.60;99.90
1063;DHT22;520;50.932;6.962;2022-11-20T06:04:17;6.60;99.90
1063;DHT22;520;50.932;6.962;2022-11-20T06:07:24;6.30;99.80
1063;DHT22;520;50.932;6.962;2022-11-20T06:16:25;6.00;99.90
1063;DHT22;520;50.932;6.962;2022-11-20T06:19:47;6.40;99.90
1063;DHT22;520;50.932;6.962;2022-11-20T08:32:00;6.40;99.90
1063;DHT22;520;50.932;6.962;2022-11-20T08:41:57;6.40;99.90
1063;DHT22;520;50.932;6.962;2022-11-20T08:44:59;6.60;99.90
1063;DHT22;520;50.932;6.962;2022-11-20T08:47:49;6.70;99.90
1063;DHT22;520;50.932;6.962;2022-11-20T08:58:54;6.80;99.90
1063;DHT22;520;50.932;6.962;2022-11-20T09:01:51;6.90;99.90
1063;DHT22;520;50.932;6.962;2022-11-20T09:08:14;6.60;99.90
1063;DHT22;520;50.932;6.962;2022-11-20T09:11:39;6.30;99.90
1063;DHT22;520;50.932;6.962;2022-11-20T09:15:14;6.90;99.90
1063;DHT22;520;50.932;6.962;2022-11-20T09:18:41;7.30;99.90
1063;DHT22;520;50.932;6.962;2022-11-20T09:26:21;7.20;99.30
1063;DHT22;520;50.932;6.962;2022-11-20T09:29:25;7.00;99.60
1063;DHT22;520;50.932;6.962;2022-11-20T09:39:39;6.80;99.90
1063;DHT22;520;50.932;6.962;2022-11-20T09:42:40;7.30;99.90
1063;DHT22;520;50.932;6.962;2022-11-20T09:45:57;7.40;99.90
1063;DHT22;520;50.932;6.962;2022-11-20T09:55:59;7.30;99.30
1063;DHT22;520;50.932;6.962;2022-11-20T10:05:50;7.40;98.90
1063;DHT22;520;50.932;6.962;2022-11-20T10:16:03;7.50;99.00
1063;DHT22;520;50.932;6.962;2022-11-20T10:25:55;7.00;99.90
1063;DHT22;520;50.932;6.962;2022-11-20T10:29:01;6.90;99.90
1063;DHT22;520;50.932;6.962;2022-11-20T10:32:00;6.90;99.90
1063;DHT22;520;50.932;6.962;2022-11-20T10:34:48;6.90;99.90
1063;DHT22;520;50.932;6.962;2022-11-20T10:37:47;6.90;99.90
1063;DHT22;520;50.932;6.962;2022-11-20T10:41:02;6.90;99.90
1063;DHT22;520;50.932;6.962;2022-11-20T10:47:44;7.00;99.90
1063;DHT22;520;50.932;6.962;2022-11-20T10:56:50;6.90;99.90
1063;DHT22;520;50.932;6.962;2022-11-20T11:00:19;7.10;99.90
1063;DHT22;520;50.932;6.962;2022-11-20T11:03:38;7.10;99.90
1063;DHT22;520;50.932;6.962;2022-11-20T11:07:30;7.30;99.90
1063;DHT22;520;50.932;6.962;2022-11-20T11:14:17;7.10;99.90
1063;DHT22;520;50.932;6.962;2022-11-20T11:17:31;7.30;99.90
1063;DHT22;520;50.932;6.962;2022-11-20T11:20:25;7.30;99.90
1063;DHT22;520;50.932;6.962;2022-11-20T11:26:01;7.30;99.90
1063;DHT22;520;50.932;6.962;2022-11-20T11:28:39;7.50;99.90
1063;DHT22;520;50.932;6.962;2022-11-20T11:31:44;7.50;99.90
1063;DHT22;520;50.932;6.962;2022-11-20T11:34:43;7.50;99.90
1063;DHT22;520;50.932;6.962;2022-11-20T11:37:24;7.60;99.90
1063;DHT22;520;50.932;6.962;2022-11-20T11:40:31;7.60;99.90
1063;DHT22;520;50.932;6.962;2022-11-20T11:43:15;7.60;99.90
1063;DHT22;520;50.932;6.962;2022-11-20T11:46:53;7.60;99.90
1063;DHT22;520;50.932;6.962;2022-11-20T11:49:49;7.50;99.90
1063;DHT22;520;50.932;6.962;2022-11-20T11:56:38;7.40;99.90
1063;DHT22;520;50.932;6.962;2022-11-20T12:03:24;7.60;99.90
1063;DHT22;520;50.932;6.962;2022-11-20T12:06:14;7.50;99.90
1063;DHT22;520;50.932;6.962;2022-11-20T12:09:29;7.40;99.90
1063;DHT22;520;50.932;6.962;2022-11-20T12:12:31;7.30;99.90
1063;DHT22;520;50.932;6.962;2022-11-20T12:15:42;7.30;99.90
1063;DHT22;520;50.932;6.962;2022-11-20T12:25:15;7.50;99.90
1063;DHT22;520;50.932;6.962;2022-11-20T12:32:11;7.50;99.90
1063;DHT22;520;50.932;6.962;2022-11-20T12:35:20;7.60;99.90
1063;DHT22;520;50.932;6.962;2022-11-20T14:06:54;8.20;99.90
1063;DHT22;520;50.932;6.962;2022-11-20T14:14:36;7.90;99.90
1063;DHT22;520;50.932;6.962;2022-11-20T14:17:39;7.70;99.90
1063;DHT22;520;50.932;6.962;2022-11-20T14:20:30;7.90;99.90
1063;DHT22;520;50.932;6.962;2022-11-20T14:24:17;7.70;99.90
1063;DHT22;520;50.932;6.962;2022-11-20T14:27:42;8.00;99.90
1063;DHT22;520;50.932;6.962;2022-11-20T14:33:55;8.00;99.90
1063;DHT22;520;50.932;6.962;2022-11-20T14:37:42;8.10;99.90
1063;DHT22;520;50.932;6.962;2022-11-20T14:40:49;8.20;99.90
1063;DHT22;520;50.932;6.962;2022-11-20T14:44:08;8.20;99.90
1063;DHT22;520;50.932;6.962;2022-11-20T14:47:57;8.10;99.90
1063;DHT22;520;50.932;6.962;2022-11-20T14:58:28;8.00;99.90
1063;DHT22;520;50.932;6.962;2022-11-20T15:01:26;8.10;99.90
1063;DHT22;520;50.932;6.962;2022-11-20T15:04:28;8.10;99.90
1063;DHT22;520;50.932;6.962;2022-11-20T15:08:13;8.10;99.90
1063;DHT22;520;50.932;6.962;2022-11-20T15:14:57;8.30;99.90
1063;DHT22;520;50.932;6.962;2022-11-20T15:17:44;8.40;99.90
1063;DHT22;520;50.932;6.962;2022-11-20T15:20:31;8.30;99.90
1063;DHT22;520;50.932;6.962;2022-11-20T15:26:59;8.10;99.90
1063;DHT22;520;50.932;6.962;2022-11-20T15:30:42;8.20;99.90
1063;DHT22;520;50.932;6.962;2022-11-20T15:33:32;8.10;99.90
1063;DHT22;520;50.932;6.962;2022-11-20T15:39:38;8.30;99.90
1063;DHT22;520;50.932;6.962;2022-11-20T15:42:40;8.20;99.90
1063;DHT22;520;50.932;6.962;2022-11-20T15:52:50;8.30;99.90
1063;DHT22;520;50.932;6.962;2022-11-20T16:03:16;8.60;99.90
1063;DHT22;520;50.932;6.962;2022-11-20T16:09:52;8.40;99.90
1063;DHT22;520;50.932;6.962;2022-11-20T16:12:47;8.50;99.90
1063;DHT22;520;50.932;6.962;2022-11-20T16:16:28;8.40;99.90
1063;DHT22;520;50.932;6.962;2022-11-20T16:19:49;8.50;99.90
1063;DHT22;520;50.932;6.962;2022-11-20T16:22:50;8.60;99.90
1063;DHT22;520;50.932;6.962;2022-11-20T17:12:18;8.60;99.90
1063;DHT22;520;50.932;6.962;2022-11-20T22:38:41;8.90;99.90
1063;DHT22;520;50.932;6.962;2022-11-20T23:08:20;9.00;99.90
